Time;durP1;ratioP1;P1;durP2;ratioP2;P2;SDS_P1;SDS_P2;PMS_P1;PMS_P2;Temp;Humidity;BMP_temperature;BMP_pressure;BME280_temperature;BME280_humidity;BME280_pressure;Samples;Min_cycle;Max_cycle;Signal;HPM_P1;HPM_P2
2022/08/07 00:00:21;;;;;;;;;;;;;;;;;;5050956;28;1318;-71
2022/08/07 00:02:47;;;;;;;;;;;;;;;;;;5050689;28;945;-71
2022/08/07 00:05:14;;;;;;;;;;;;;;;;;;5050974;28;1910;-71
2022/08/07 00:07:40;;;;;;;;;;;;;;;;;;5050876;28;878;-71
2022/08/07 00:10:07;;;;;;;;;;;;;;;;;;5049561;28;1224;-70
2022/08/07 00:12:34;;;;;;;;;;;;;;;;;;5050398;28;1322;-70
2022/08/07 00:15:00;;;;;;;;;;;;;;;;;;5050802;28;988;-71
2022/08/07 00:17:26;;;;;;;;;;;;;;;;;;5050985;28;1071;-71
2022/08/07 00:19:53;;;;;;;;;;;;;;;;;;5049543;28;1135;-70
2022/08/07 00:22:19;;;;;;;;;;;;;;;;;;5050633;28;1430;-71
2022/08/07 00:24:45;;;;;;;;;;;;;;;;;;5050789;28;1914;-70
2022/08/07 00:27:11;;;;;;;;;;;;;;;;;;5050357;28;1068;-71
2022/08/07 00:29:39;;;;;;;;;;;;;;;;;;5045921;28;1462;-70
2022/08/07 00:32:06;;;;;;;;;;;;;;;;;;5030194;28;1550;-70
2022/08/07 00:34:32;;;;;;;;;;;;;;;;;;5030841;28;954;-71
2022/08/07 00:36:58;;;;;;;;;;;;;;;;;;5029346;28;1200;-71
2022/08/07 00:39:24;;;;;;;;;;;;;;;;;;5029439;28;1232;-71
2022/08/07 00:41:52;;;;;;;;;;;;;;;;;;5030178;28;1293;-69
2022/08/07 00:44:18;;;;;;;;;;;;;;;;;;5029293;28;1457;-69
2022/08/07 00:46:46;;;;;;;;;;;;;;;;;;5030859;28;1977;-69
2022/08/07 00:49:13;;;;;;;;;;;;;;;;;;5029942;28;1215;-70
2022/08/07 00:51:39;;;;;;;;;;;;;;;;;;5028815;28;1309;-70
2022/08/07 00:54:06;;;;;;;;;;;;;;;;;;5032463;28;921;-70
2022/08/07 00:56:32;;;;;;;;;;;;;;;;;;5033009;28;1160;-69
2022/08/07 00:58:59;;;;;;;;;;;;;;;;;;5034043;28;1076;-70
2022/08/07 01:01:25;;;;;;;;;;;;;;;;;;5032254;28;1411;-69
2022/08/07 01:03:53;;;;;;;;;;;;;;;;;;5032827;28;1142;-69
2022/08/07 01:06:19;;;;;;;;;;;;;;;;;;5032597;28;1981;-70
2022/08/07 01:08:45;;;;;;;;;;;;;;;;;;5033969;28;1064;-69
2022/08/07 01:11:12;;;;;;;;;;;;;;;;;;5033971;28;1310;-70
2022/08/07 01:13:38;;;;;;;;;;;;;;;;;;5032236;28;1136;-70
2022/08/07 01:16:05;;;;;;;;;;;;;;;;;;5032712;28;1436;-70
2022/08/07 01:18:31;;;;;;;;;;;;;;;;;;5033744;28;953;-69
2022/08/07 01:21:05;;;;;;;;;;;;;;;;;;5032318;28;1335;-70
2022/08/07 01:23:32;;;;;;;;;;;;;;;;;;5032054;28;1199;-70
2022/08/07 01:25:58;;;;;;;;;;;;;;;;;;5032347;28;1910;-70
2022/08/07 01:28:24;;;;;;;;;;;;;;;;;;5033707;28;831;-69
2022/08/07 01:30:53;;;;;;;;;;;;;;;;;;5032145;28;1535;-70
2022/08/07 01:33:20;;;;;;;;;;;;;;;;;;5032056;28;1015;-70
2022/08/07 01:35:47;;;;;;;;;;;;;;;;;;5032089;28;1384;-69
2022/08/07 01:38:14;;;;;;;;;;;;;;;;;;5031920;28;961;-69
2022/08/07 01:40:41;;;;;;;;;;;;;;;;;;5048603;28;1334;-69
2022/08/07 01:43:08;;;;;;;;;;;;;;;;;;5031670;28;1537;-70
2022/08/07 01:45:35;;;;;;;;;;;;;;;;;;5032679;28;1959;-70
2022/08/07 01:48:01;;;;;;;;;;;;;;;;;;5032165;28;1508;-70
2022/08/07 01:50:28;;;;;;;;;;;;;;;;;;5031792;28;1433;-69
2022/08/07 01:52:54;;;;;;;;;;;;;;;;;;5031385;28;1313;-69
2022/08/07 01:55:23;;;;;;;;;;;;;;;;;;5031424;28;1437;-69
2022/08/07 01:57:51;;;;;;;;;;;;;;;;;;5031444;28;1577;-68
2022/08/07 02:00:17;;;;;;;;;;;;;;;;;;5031671;28;1375;-69
2022/08/07 02:02:46;;;;;;;;;;;;;;;;;;5031496;28;1497;-69
2022/08/07 02:05:13;;;;;;;;;;;;;;;;;;5031892;28;2124;-70
2022/08/07 02:07:41;;;;;;;;;;;;;;;;;;5031446;28;1336;-71
2022/08/07 02:10:07;;;;;;;;;;;;;;;;;;5032979;28;1059;-70
2022/08/07 02:12:39;;;;;;;;;;;;;;;;;;5030729;28;1505;-68
2022/08/07 02:15:09;;;;;;;;;;;;;;;;;;5031157;28;1192;-70
2022/08/07 02:17:38;;;;;;;;;;;;;;;;;;5031461;28;1195;-70
2022/08/07 02:20:04;;;;;;;;;;;;;;;;;;5032708;28;913;-69
2022/08/07 02:22:31;;;;;;;;;;;;;;;;;;5030984;28;1510;-70
2022/08/07 02:24:57;;;;;;;;;;;;;;;;;;5030907;28;1915;-69
2022/08/07 02:27:26;;;;;;;;;;;;;;;;;;5031079;28;1173;-69
2022/08/07 02:29:55;;;;;;;;;;;;;;;;;;5030785;28;1784;-70
2022/08/07 02:32:26;;;;;;;;;;;;;;;;;;5010672;28;1356;-69
2022/08/07 02:34:52;;;;;;;;;;;;;;;;;;5011238;28;1230;-69
2022/08/07 02:37:23;;;;;;;;;;;;;;;;;;5011457;28;1228;-69
2022/08/07 02:39:50;;;;;;;;;;;;;;;;;;5011206;28;1196;-69
2022/08/07 02:42:19;;;;;;;;;;;;;;;;;;5011090;28;1432;-70
2022/08/07 02:44:48;;;;;;;;;;;;;;;;;;5011079;28;1289;-69
2022/08/07 02:47:18;;;;;;;;;;;;;;;;;;5012409;28;2084;-69
2022/08/07 02:49:46;;;;;;;;;;;;;;;;;;5010689;28;1217;-70
2022/08/07 02:52:14;;;;;;;;;;;;;;;;;;5010650;28;1416;-69
2022/08/07 02:54:42;;;;;;;;;;;;;;;;;;5010981;28;1114;-69
2022/08/07 02:57:08;;;;;;;;;;;;;;;;;;5011000;28;1582;-69
2022/08/07 02:59:34;;;;;;;;;;;;;;;;;;5011003;28;1527;-70
2022/08/07 03:02:02;;;;;;;;;;;;;;;;;;5010519;28;1301;-69
2022/08/07 03:04:30;;;;;;;;;;;;;;;;;;5010897;28;1480;-69
2022/08/07 03:06:59;;;;;;;;;;;;;;;;;;5010743;28;1989;-69
2022/08/07 03:09:25;;;;;;;;;;;;;;;;;;5010746;28;1220;-69
2022/08/07 03:11:51;;;;;;;;;;;;;;;;;;5011478;28;1358;-69
2022/08/07 03:14:17;;;;;;;;;;;;;;;;;;5010693;28;1180;-69
2022/08/07 03:16:43;;;;;;;;;;;;;;;;;;5011775;28;842;-69
2022/08/07 03:19:10;;;;;;;;;;;;;;;;;;5010763;28;1343;-69
2022/08/07 03:21:38;;;;;;;;;;;;;;;;;;5010170;28;1393;-69
2022/08/07 03:24:05;;;;;;;;;;;;;;;;;;5011810;28;798;-69
2022/08/07 03:26:32;;;;;;;;;;;;;;;;;;5010511;28;1941;-69
2022/08/07 03:29:01;;;;;;;;;;;;;;;;;;5010136;28;1549;-69
2022/08/07 03:31:28;;;;;;;;;;;;;;;;;;5010218;28;1668;-69
2022/08/07 03:33:57;;;;;;;;;;;;;;;;;;5010638;28;1272;-68
2022/08/07 03:36:24;;;;;;;;;;;;;;;;;;5010508;28;1680;-69
2022/08/07 03:38:52;;;;;;;;;;;;;;;;;;5010229;28;1240;-69
2022/08/07 03:41:18;;;;;;;;;;;;;;;;;;5009877;28;1353;-70
2022/08/07 03:43:45;;;;;;;;;;;;;;;;;;5010370;28;1184;-69
2022/08/07 03:46:12;;;;;;;;;;;;;;;;;;5010182;28;1910;-69
2022/08/07 03:48:38;;;;;;;;;;;;;;;;;;5009801;28;1441;-69
2022/08/07 03:51:05;;;;;;;;;;;;;;;;;;5010232;28;1516;-69
2022/08/07 03:53:39;;;;;;;;;;;;;;;;;;5009872;28;1176;-69
2022/08/07 03:56:08;;;;;;;;;;;;;;;;;;5010118;28;1184;-69
2022/08/07 03:58:36;;;;;;;;;;;;;;;;;;5010204;28;1314;-70
2022/08/07 04:01:03;;;;;;;;;;;;;;;;;;5010108;28;1333;-71
2022/08/07 04:03:31;;;;;;;;;;;;;;;;;;5009825;28;1300;-68
2022/08/07 04:05:58;;;;;;;;;;;;;;;;;;5009976;28;1910;-70
2022/08/07 04:08:24;;;;;;;;;;;;;;;;;;5010143;28;1153;-70
2022/08/07 04:10:50;;;;;;;;;;;;;;;;;;5009813;28;1294;-70
2022/08/07 04:13:19;;;;;;;;;;;;;;;;;;5009848;28;1318;-71
2022/08/07 04:15:45;;;;;;;;;;;;;;;;;;5009937;28;1484;-70
2022/08/07 04:18:12;;;;;;;;;;;;;;;;;;5010108;28;1708;-70
2022/08/07 04:20:39;;;;;;;;;;;;;;;;;;5009708;28;1436;-71
2022/08/07 04:23:06;;;;;;;;;;;;;;;;;;5010564;28;1163;-70
2022/08/07 04:25:37;;;;;;;;;;;;;;;;;;5009325;28;1963;-70
2022/08/07 04:28:03;;;;;;;;;;;;;;;;;;5010270;28;1139;-70
2022/08/07 04:30:31;;;;;;;;;;;;;;;;;;5014993;28;1403;-70
2022/08/07 04:33:01;;;;;;;;;;;;;;;;;;5019709;28;1480;-70
2022/08/07 04:35:30;;;;;;;;;;;;;;;;;;5033676;28;1288;-70
2022/08/07 04:37:56;;;;;;;;;;;;;;;;;;5033210;28;1728;-70
2022/08/07 04:40:24;;;;;;;;;;;;;;;;;;5033325;28;1398;-69
2022/08/07 04:42:50;;;;;;;;;;;;;;;;;;5032755;28;1418;-69
2022/08/07 04:45:17;;;;;;;;;;;;;;;;;;5033295;28;1227;-69
2022/08/07 04:47:50;;;;;;;;;;;;;;;;;;5033033;28;1918;-70
2022/08/07 04:50:18;;;;;;;;;;;;;;;;;;5033118;28;1543;-70
2022/08/07 04:53:02;;;;;;;;;;;;;;;;;;5033948;28;809;-69
2022/08/07 04:55:30;;;;;;;;;;;;;;;;;;5033153;28;1530;-70
2022/08/07 04:57:59;;;;;;;;;;;;;;;;;;5032907;28;1150;-70
2022/08/07 05:00:29;;;;;;;;;;;;;;;;;;5032912;28;1537;-70
2022/08/07 05:02:58;;;;;;;;;;;;;;;;;;5032197;28;1160;-70
2022/08/07 05:05:26;;;;;;;;;;;;;;;;;;5032973;28;1527;-70
2022/08/07 05:07:56;;;;;;;;;;;;;;;;;;5049341;28;1914;-70
2022/08/07 05:10:23;;;;;;;;;;;;;;;;;;5032610;28;1310;-70
2022/08/07 05:12:51;;;;;;;;;;;;;;;;;;5032248;28;1324;-70
2022/08/07 05:15:18;;;;;;;;;;;;;;;;;;5033284;28;1377;-70
2022/08/07 05:17:45;;;;;;;;;;;;;;;;;;5032565;28;1160;-70
2022/08/07 05:20:14;;;;;;;;;;;;;;;;;;5032719;28;1281;-70
2022/08/07 05:22:41;;;;;;;;;;;;;;;;;;5033064;28;1410;-70
2022/08/07 05:25:08;;;;;;;;;;;;;;;;;;5032577;28;1311;-71
2022/08/07 05:27:34;;;;;;;;;;;;;;;;;;5032252;28;1981;-70
2022/08/07 05:30:01;;;;;;;;;;;;;;;;;;5032354;28;1207;-70
2022/08/07 05:32:27;;;;;;;;;;;;;;;;;;5032004;28;1585;-70
2022/08/07 05:34:54;;;;;;;;;;;;;;;;;;5032202;28;1264;-71
2022/08/07 05:37:21;;;;;;;;;;;;;;;;;;5032151;28;1581;-70
2022/08/07 05:39:55;;;;;;;;;;;;;;;;;;5031712;28;1304;-70
2022/08/07 05:42:22;;;;;;;;;;;;;;;;;;5033053;28;1484;-70
2022/08/07 05:44:49;;;;;;;;;;;;;;;;;;5032055;28;1486;-70
2022/08/07 05:47:18;;;;;;;;;;;;;;;;;;5033241;28;1970;-70
2022/08/07 05:49:46;;;;;;;;;;;;;;;;;;5031983;28;971;-70
2022/08/07 05:52:15;;;;;;;;;;;;;;;;;;5031356;28;1322;-71
2022/08/07 05:54:42;;;;;;;;;;;;;;;;;;5031916;28;1504;-71
2022/08/07 05:57:10;;;;;;;;;;;;;;;;;;5031648;28;959;-71
2022/08/07 05:59:37;;;;;;;;;;;;;;;;;;5032817;28;1060;-71
2022/08/07 06:02:04;;;;;;;;;;;;;;;;;;5031363;28;1338;-71
2022/08/07 06:04:31;;;;;;;;;;;;;;;;;;5034203;28;926;-72
2022/08/07 06:06:58;;;;;;;;;;;;;;;;;;5031612;28;1931;-71
2022/08/07 06:09:24;;;;;;;;;;;;;;;;;;5031493;28;1343;-71
2022/08/07 06:11:51;;;;;;;;;;;;;;;;;;5031132;28;1371;-71
2022/08/07 06:14:21;;;;;;;;;;;;;;;;;;5031682;28;2179;-71
2022/08/07 06:16:50;;;;;;;;;;;;;;;;;;5031231;28;1456;-71
2022/08/07 06:19:16;;;;;;;;;;;;;;;;;;5031724;28;1465;-71
2022/08/07 06:21:42;;;;;;;;;;;;;;;;;;5032437;28;1288;-71
2022/08/07 06:24:09;;;;;;;;;;;;;;;;;;5031473;28;1831;-72
2022/08/07 06:26:38;;;;;;;;;;;;;;;;;;5038095;28;1981;-71
2022/08/07 06:29:05;;;;;;;;;;;;;;;;;;5042803;28;1221;-72
2022/08/07 06:31:32;;;;;;;;;;;;;;;;;;5050797;28;1535;-71
2022/08/07 06:33:58;;;;;;;;;;;;;;;;;;5051911;28;779;-72
2022/08/07 06:36:25;;;;;;;;;;;;;;;;;;5051039;28;1319;-71
2022/08/07 06:38:55;;;;;;;;;;;;;;;;;;5049896;28;1355;-71
2022/08/07 06:41:22;;;;;;;;;;;;;;;;;;5051697;28;1369;-72
2022/08/07 06:43:49;;;;;;;;;;;;;;;;;;5049101;28;1419;-71
2022/08/07 06:46:20;;;;;;;;;;;;;;;;;;5050803;28;1968;-72
2022/08/07 06:48:46;;;;;;;;;;;;;;;;;;5050337;28;1443;-72
2022/08/07 06:51:19;;;;;;;;;;;;;;;;;;5049523;28;1456;-72
2022/08/07 06:53:45;;;;;;;;;;;;;;;;;;5050504;28;1191;-70
2022/08/07 06:56:14;;;;;;;;;;;;;;;;;;5050700;28;1400;-71
2022/08/07 06:58:40;;;;;;;;;;;;;;;;;;5051736;28;795;-69
2022/08/07 07:01:11;;;;;;;;;;;;;;;;;;5050277;28;1435;-70
2022/08/07 07:03:39;;;;;;;;;;;;;;;;;;5050253;28;1428;-70
2022/08/07 07:06:06;;;;;;;;;;;;;;;;;;5050427;28;1048;-72
2022/08/07 07:08:33;;;;;;;;;;;;;;;;;;5049890;28;1926;-72
2022/08/07 07:10:59;;;;;;;;;;;;;;;;;;5051441;28;1322;-71
2022/08/07 07:13:28;;;;;;;;;;;;;;;;;;5050081;28;1330;-71
2022/08/07 07:15:55;;;;;;;;;;;;;;;;;;5051457;28;893;-71
2022/08/07 07:18:22;;;;;;;;;;;;;;;;;;5051504;28;1075;-71
2022/08/07 07:20:51;;;;;;;;;;;;;;;;;;5051651;28;1327;-71
2022/08/07 07:23:17;;;;;;;;;;;;;;;;;;5051499;28;1119;-71
2022/08/07 07:25:43;;;;;;;;;;;;;;;;;;5049770;28;1150;-71
2022/08/07 07:28:11;;;;;;;;;;;;;;;;;;5051381;28;1914;-72
2022/08/07 07:30:38;;;;;;;;;;;;;;;;;;5049791;28;1321;-71
2022/08/07 07:33:04;;;;;;;;;;;;;;;;;;5050928;28;1076;-71
2022/08/07 07:35:31;;;;;;;;;;;;;;;;;;5051239;28;1009;-70
2022/08/07 07:37:58;;;;;;;;;;;;;;;;;;5050036;28;1130;-70
2022/08/07 07:40:24;;;;;;;;;;;;;;;;;;5051232;28;1258;-70
2022/08/07 07:42:52;;;;;;;;;;;;;;;;;;5039645;28;1677;-71
2022/08/07 07:45:18;;;;;;;;;;;;;;;;;;5031575;28;1064;-71
2022/08/07 07:47:44;;;;;;;;;;;;;;;;;;5031156;28;1922;-71
2022/08/07 07:50:11;;;;;;;;;;;;;;;;;;5031254;28;831;-70
2022/08/07 07:52:37;;;;;;;;;;;;;;;;;;5030680;28;1440;-71
2022/08/07 07:55:06;;;;;;;;;;;;;;;;;;5031185;28;901;-71
2022/08/07 07:57:32;;;;;;;;;;;;;;;;;;5031174;28;802;-70
2022/08/07 07:59:58;;;;;;;;;;;;;;;;;;5031065;28;1067;-71
2022/08/07 08:02:24;;;;;;;;;;;;;;;;;;5031526;28;1401;-70
2022/08/07 08:04:50;;;;;;;;;;;;;;;;;;5033727;28;1463;-71
2022/08/07 08:07:16;;;;;;;;;;;;;;;;;;5035174;28;1968;-71
2022/08/07 08:09:43;;;;;;;;;;;;;;;;;;5035165;28;920;-71
2022/08/07 08:12:10;;;;;;;;;;;;;;;;;;5034654;28;1294;-71
2022/08/07 08:14:36;;;;;;;;;;;;;;;;;;5033577;28;949;-71
2022/08/07 08:17:03;;;;;;;;;;;;;;;;;;5034980;28;1119;-71
2022/08/07 08:19:29;;;;;;;;;;;;;;;;;;5034502;28;1463;-71
2022/08/07 08:27:28;;;;;;;;;;;;;;;;;;5034585;28;1922;-71
2022/08/07 08:29:54;;;;;;;;;;;;;;;;;;5034646;28;1141;-71
2022/08/07 08:32:21;;;;;;;;;;;;;;;;;;5034245;28;1309;-71
2022/08/07 08:34:48;;;;;;;;;;;;;;;;;;5034232;28;1067;-71
2022/08/07 08:37:14;;;;;;;;;;;;;;;;;;5034753;28;886;-71
2022/08/07 08:39:40;;;;;;;;;;;;;;;;;;5033096;28;1539;-69
2022/08/07 08:42:07;;;;;;;;;;;;;;;;;;5034108;28;1401;-71
2022/08/07 08:44:35;;;;;;;;;;;;;;;;;;5034467;28;1111;-70
2022/08/07 08:47:03;;;;;;;;;;;;;;;;;;5034383;28;1914;-70
2022/08/07 08:49:31;;;;;;;;;;;;;;;;;;5034350;28;795;-70
2022/08/07 08:51:59;;;;;;;;;;;;;;;;;;5033945;28;1329;-70
2022/08/07 08:54:26;;;;;;;;;;;;;;;;;;5033935;28;1079;-70
2022/08/07 08:56:53;;;;;;;;;;;;;;;;;;5034131;28;988;-71
2022/08/07 08:59:20;;;;;;;;;;;;;;;;;;5032907;28;1982;-71
2022/08/07 09:01:49;;;;;;;;;;;;;;;;;;5032412;28;1412;-70
2022/08/07 09:04:17;;;;;;;;;;;;;;;;;;5034015;28;700;-70
2022/08/07 09:06:44;;;;;;;;;;;;;;;;;;5033881;28;1080;-70
2022/08/07 09:09:15;;;;;;;;;;;;;;;;;;5033920;28;1075;-70
2022/08/07 09:11:43;;;;;;;;;;;;;;;;;;5032111;28;1352;-70
2022/08/07 09:14:11;;;;;;;;;;;;;;;;;;5032960;28;976;-69
2022/08/07 09:16:42;;;;;;;;;;;;;;;;;;5033742;28;1128;-70
2022/08/07 09:19:22;;;;;;;;;;;;;;;;;;5033803;28;1914;-70
2022/08/07 09:21:51;;;;;;;;;;;;;;;;;;5033181;28;1379;-70
2022/08/07 09:24:21;;;;;;;;;;;;;;;;;;5033646;28;1056;-70
2022/08/07 09:26:50;;;;;;;;;;;;;;;;;;5033504;28;1568;-70
2022/08/07 09:29:21;;;;;;;;;;;;;;;;;;5033688;28;980;-71
2022/08/07 09:31:51;;;;;;;;;;;;;;;;;;5032988;28;1310;-71
2022/08/07 09:34:20;;;;;;;;;;;;;;;;;;5033511;28;1108;-68
2022/08/07 09:36:48;;;;;;;;;;;;;;;;;;5033144;28;1104;-69
2022/08/07 09:39:24;;;;;;;;;;;;;;;;;;5032204;28;1929;-71
2022/08/07 09:41:53;;;;;;;;;;;;;;;;;;5032973;28;1385;-71
2022/08/07 09:44:19;;;;;;;;;;;;;;;;;;5033800;28;1048;-70
2022/08/07 09:46:50;;;;;;;;;;;;;;;;;;5033204;28;1052;-71
2022/08/07 09:49:19;;;;;;;;;;;;;;;;;;5033255;28;1055;-70
2022/08/07 09:51:59;;;;;;;;;;;;;;;;;;5032286;28;1393;-70
2022/08/07 09:54:26;;;;;;;;;;;;;;;;;;5031930;28;1111;-71
2022/08/07 09:56:58;;;;;;;;;;;;;;;;;;5033114;28;1003;-70
2022/08/07 09:59:33;;;;;;;;;;;;;;;;;;5033183;28;1981;-71
2022/08/07 10:02:04;;;;;;;;;;;;;;;;;;5032673;28;1367;-70
2022/08/07 10:04:37;;;;;;;;;;;;;;;;;;5033124;28;774;-70
2022/08/07 10:07:14;;;;;;;;;;;;;;;;;;5032991;28;834;-70
2022/08/07 10:09:48;;;;;;;;;;;;;;;;;;5031397;28;1103;-70
2022/08/07 10:12:18;;;;;;;;;;;;;;;;;;5032412;28;1371;-70
2022/08/07 10:14:58;;;;;;;;;;;;;;;;;;5032639;28;1056;-70
2022/08/07 10:17:31;;;;;;;;;;;;;;;;;;5032853;28;1918;-71
2022/08/07 10:20:04;;;;;;;;;;;;;;;;;;5032638;28;1068;-70
2022/08/07 10:22:47;;;;;;;;;;;;;;;;;;5031931;28;1439;-70
2022/08/07 10:25:16;;;;;;;;;;;;;;;;;;5032371;28;1382;-71
2022/08/07 10:27:49;;;;;;;;;;;;;;;;;;5031828;28;983;-70
2022/08/07 10:30:16;;;;;;;;;;;;;;;;;;5032368;28;1120;-71
2022/08/07 10:32:48;;;;;;;;;;;;;;;;;;5031769;28;1283;-70
2022/08/07 10:35:15;;;;;;;;;;;;;;;;;;5031320;28;1124;-72
2022/08/07 10:37:45;;;;;;;;;;;;;;;;;;5032196;28;1910;-72
2022/08/07 10:40:12;;;;;;;;;;;;;;;;;;5032777;28;858;-72
2022/08/07 10:42:40;;;;;;;;;;;;;;;;;;5031985;28;1318;-72
2022/08/07 10:45:10;;;;;;;;;;;;;;;;;;5032095;28;755;-72
2022/08/07 10:47:47;;;;;;;;;;;;;;;;;;5107999;27;1243;-69
2022/08/07 10:50:14;;;;;;;;;;;;;;;;;;5109252;28;816;-71
2022/08/07 10:52:46;;;;;;;;;;;;;;;;;;5108582;28;1307;-71
2022/08/07 10:55:14;;;;;;;;;;;;;;;;;;5109042;28;928;-71
2022/08/07 10:57:43;;;;;;;;;;;;;;;;;;5109034;28;932;-71
2022/08/07 11:00:10;;;;;;;;;;;;;;;;;;5108909;28;1070;-71
2022/08/07 11:02:37;;;;;;;;;;;;;;;;;;5108655;28;1301;-71
2022/08/07 11:05:13;;;;;;;;;;;;;;;;;;5108608;28;1117;-71
2022/08/07 11:07:40;;;;;;;;;;;;;;;;;;5108751;28;1987;-72
2022/08/07 11:10:09;;;;;;;;;;;;;;;;;;5108768;28;1115;-71
2022/08/07 11:12:37;;;;;;;;;;;;;;;;;;5108225;28;1297;-71
2022/08/07 11:15:04;;;;;;;;;;;;;;;;;;5108532;28;1007;-71
2022/08/07 11:17:33;;;;;;;;;;;;;;;;;;5108766;28;1125;-71
2022/08/07 11:19:59;;;;;;;;;;;;;;;;;;5108569;28;1130;-72
2022/08/07 11:22:29;;;;;;;;;;;;;;;;;;5108137;28;1365;-71
2022/08/07 11:24:58;;;;;;;;;;;;;;;;;;5108463;28;881;-71
2022/08/07 11:27:25;;;;;;;;;;;;;;;;;;5106923;28;1980;-72
2022/08/07 11:29:52;;;;;;;;;;;;;;;;;;5106942;28;1336;-71
2022/08/07 11:32:21;;;;;;;;;;;;;;;;;;5108201;28;1290;-71
2022/08/07 11:34:48;;;;;;;;;;;;;;;;;;5108568;28;1075;-71
2022/08/07 11:37:17;;;;;;;;;;;;;;;;;;5108310;28;1066;-71
2022/08/07 11:39:54;;;;;;;;;;;;;;;;;;5108141;28;1064;-69
2022/08/07 11:42:22;;;;;;;;;;;;;;;;;;5107638;28;1375;-71
2022/08/07 11:44:52;;;;;;;;;;;;;;;;;;5101131;28;1354;-71
2022/08/07 11:47:22;;;;;;;;;;;;;;;;;;5123682;28;1918;-71
2022/08/07 11:50:03;;;;;;;;;;;;;;;;;;5126179;28;1538;-70
2022/08/07 11:52:36;;;;;;;;;;;;;;;;;;5116674;28;1512;-71
2022/08/07 11:55:09;;;;;;;;;;;;;;;;;;5121380;28;1384;-71
2022/08/07 11:57:37;;;;;;;;;;;;;;;;;;5116397;27;1297;-71
2022/08/07 12:00:05;;;;;;;;;;;;;;;;;;5112375;28;1641;-71
2022/08/07 12:02:36;;;;;;;;;;;;;;;;;;5108110;28;1567;-71
2022/08/07 12:05:07;;;;;;;;;;;;;;;;;;5112727;28;1526;-71
2022/08/07 12:07:34;;;;;;;;;;;;;;;;;;5103003;28;1982;-72
2022/08/07 12:10:04;;;;;;;;;;;;;;;;;;5111612;28;1276;-72
2022/08/07 12:12:34;;;;;;;;;;;;;;;;;;5113798;28;1325;-71
2022/08/07 12:15:02;;;;;;;;;;;;;;;;;;5107612;28;1391;-72
2022/08/07 12:17:30;;;;;;;;;;;;;;;;;;5111579;28;1459;-71
2022/08/07 12:19:58;;;;;;;;;;;;;;;;;;5111422;28;1484;-72
2022/08/07 12:22:27;;;;;;;;;;;;;;;;;;5113013;28;1481;-71
2022/08/07 12:27:42;;;;;;;;;;;;;;;;;;5113820;28;1985;-70
2022/08/07 12:30:08;;;;;;;;;;;;;;;;;;5114109;28;1142;-69
2022/08/07 12:32:36;;;;;;;;;;;;;;;;;;5113282;28;1397;-70
2022/08/07 12:35:03;;;;;;;;;;;;;;;;;;5095294;28;928;-70
2022/08/07 12:37:29;;;;;;;;;;;;;;;;;;5099621;28;1379;-70
2022/08/07 12:39:56;;;;;;;;;;;;;;;;;;5113605;28;757;-70
2022/08/07 12:42:24;;;;;;;;;;;;;;;;;;5111638;28;1387;-70
2022/08/07 12:44:52;;;;;;;;;;;;;;;;;;5108903;28;1463;-70
2022/08/07 12:47:21;;;;;;;;;;;;;;;;;;5113445;28;1921;-70
2022/08/07 12:49:49;;;;;;;;;;;;;;;;;;5113833;28;1070;-71
2022/08/07 12:52:16;;;;;;;;;;;;;;;;;;5105798;28;1453;-70
2022/08/07 12:54:44;;;;;;;;;;;;;;;;;;5108026;28;1785;-70
2022/08/07 12:57:10;;;;;;;;;;;;;;;;;;5113538;28;865;-70
2022/08/07 12:59:36;;;;;;;;;;;;;;;;;;5104027;28;1490;-71
2022/08/07 13:02:10;;;;;;;;;;;;;;;;;;5100599;28;1498;-71
2022/08/07 13:04:48;;;;;;;;;;;;;;;;;;5109082;28;1435;-71
2022/08/07 13:07:17;;;;;;;;;;;;;;;;;;5102038;28;1905;-71
2022/08/07 13:09:46;;;;;;;;;;;;;;;;;;5093585;28;1402;-71
2022/08/07 13:12:14;;;;;;;;;;;;;;;;;;5097338;28;1486;-71
2022/08/07 13:14:43;;;;;;;;;;;;;;;;;;5103061;28;1610;-71
2022/08/07 13:17:12;;;;;;;;;;;;;;;;;;5096206;28;1397;-71
2022/08/07 13:19:39;;;;;;;;;;;;;;;;;;5107266;28;1595;-72
2022/08/07 13:22:08;;;;;;;;;;;;;;;;;;5104128;28;1425;-72
2022/08/07 13:24:36;;;;;;;;;;;;;;;;;;5103850;28;1410;-71
2022/08/07 13:27:04;;;;;;;;;;;;;;;;;;5109354;28;1918;-72
2022/08/07 13:29:33;;;;;;;;;;;;;;;;;;5108553;28;1352;-72
2022/08/07 13:32:01;;;;;;;;;;;;;;;;;;5112246;28;1386;-72
2022/08/07 13:34:37;;;;;;;;;;;;;;;;;;5109036;28;1602;-71
2022/08/07 13:37:04;;;;;;;;;;;;;;;;;;5107374;28;1430;-72
2022/08/07 13:39:33;;;;;;;;;;;;;;;;;;5107630;28;1472;-72
2022/08/07 13:41:59;;;;;;;;;;;;;;;;;;5098930;28;1863;-73
2022/08/07 13:44:28;;;;;;;;;;;;;;;;;;5110263;28;1605;-74
2022/08/07 13:46:57;;;;;;;;;;;;;;;;;;5102165;27;2263;-72
2022/08/07 13:49:24;;;;;;;;;;;;;;;;;;5100770;28;1816;-73
2022/08/07 13:51:52;;;;;;;;;;;;;;;;;;5095112;28;1633;-72
2022/08/07 13:54:18;;;;;;;;;;;;;;;;;;5112188;28;1169;-73
2022/08/07 13:56:45;;;;;;;;;;;;;;;;;;5112400;28;1085;-72
2022/08/07 13:59:12;;;;;;;;;;;;;;;;;;5108334;28;1798;-72
2022/08/07 14:01:43;;;;;;;;;;;;;;;;;;5107930;28;1469;-73
2022/08/07 14:04:09;;;;;;;;;;;;;;;;;;5102605;28;1406;-71
2022/08/07 14:06:37;;;;;;;;;;;;;;;;;;5112426;28;1910;-73
2022/08/07 14:09:04;;;;;;;;;;;;;;;;;;5102387;28;1425;-73
2022/08/07 14:11:30;;;;;;;;;;;;;;;;;;5106216;28;1451;-72
2022/08/07 14:14:01;;;;;;;;;;;;;;;;;;5101754;28;1409;-71
2022/08/07 14:16:30;;;;;;;;;;;;;;;;;;5094721;28;1458;-71
2022/08/07 14:18:56;;;;;;;;;;;;;;;;;;5100290;28;1641;-73
2022/08/07 14:21:23;;;;;;;;;;;;;;;;;;5111342;28;1321;-73
2022/08/07 14:23:50;;;;;;;;;;;;;;;;;;5108756;28;1410;-73
2022/08/07 14:26:20;;;;;;;;;;;;;;;;;;5105974;28;1427;-73
2022/08/07 14:28:46;;;;;;;;;;;;;;;;;;5106620;28;1926;-73
2022/08/07 14:31:13;;;;;;;;;;;;;;;;;;5107850;28;1558;-73
2022/08/07 14:33:39;;;;;;;;;;;;;;;;;;5105954;28;1475;-73
2022/08/07 14:36:06;;;;;;;;;;;;;;;;;;5110639;28;1387;-73
2022/08/07 14:38:32;;;;;;;;;;;;;;;;;;5106130;28;1427;-72
2022/08/07 14:40:59;;;;;;;;;;;;;;;;;;5105433;28;1392;-72
2022/08/07 14:43:27;;;;;;;;;;;;;;;;;;5111546;28;1215;-72
2022/08/07 14:45:54;;;;;;;;;;;;;;;;;;5110236;28;1388;-72
2022/08/07 14:48:20;;;;;;;;;;;;;;;;;;5110338;28;1984;-72
2022/08/07 14:50:47;;;;;;;;;;;;;;;;;;5109057;28;1485;-73
2022/08/07 14:53:14;;;;;;;;;;;;;;;;;;5111351;28;1223;-73
2022/08/07 14:55:43;;;;;;;;;;;;;;;;;;5109433;28;1582;-71
2022/08/07 14:58:09;;;;;;;;;;;;;;;;;;5105425;28;1421;-72
2022/08/07 15:00:37;;;;;;;;;;;;;;;;;;5111453;28;1391;-72
2022/08/07 15:03:04;;;;;;;;;;;;;;;;;;5111257;28;1055;-73
2022/08/07 15:05:30;;;;;;;;;;;;;;;;;;5109889;28;1444;-71
2022/08/07 15:07:57;;;;;;;;;;;;;;;;;;5111393;28;1975;-72
2022/08/07 15:10:23;;;;;;;;;;;;;;;;;;5111615;28;1117;-72
2022/08/07 15:12:51;;;;;;;;;;;;;;;;;;5105538;28;1540;-72
2022/08/07 15:15:22;;;;;;;;;;;;;;;;;;5101179;28;1507;-72
2022/08/07 15:17:53;;;;;;;;;;;;;;;;;;5107310;28;1773;-73
2022/08/07 15:20:22;;;;;;;;;;;;;;;;;;5091157;28;904;-71
2022/08/07 15:22:50;;;;;;;;;;;;;;;;;;5104410;28;1599;-72
2022/08/07 15:25:20;;;;;;;;;;;;;;;;;;5101083;28;1628;-72
2022/08/07 15:27:48;;;;;;;;;;;;;;;;;;5108553;28;1906;-72
2022/08/07 15:30:14;;;;;;;;;;;;;;;;;;5106092;28;1483;-73
2022/08/07 15:32:40;;;;;;;;;;;;;;;;;;5106917;28;1452;-72
2022/08/07 15:35:08;;;;;;;;;;;;;;;;;;5105145;28;1545;-71
2022/08/07 15:37:34;;;;;;;;;;;;;;;;;;5108367;28;2010;-72
2022/08/07 15:40:05;;;;;;;;;;;;;;;;;;5111761;28;1490;-71
2022/08/07 15:42:46;;;;;;;;;;;;;;;;;;5114683;28;1457;-72
2022/08/07 15:45:13;;;;;;;;;;;;;;;;;;5111579;28;1588;-72
2022/08/07 15:47:40;;;;;;;;;;;;;;;;;;5114894;28;1917;-71
2022/08/07 15:50:06;;;;;;;;;;;;;;;;;;5111564;28;1819;-71
2022/08/07 15:52:34;;;;;;;;;;;;;;;;;;5114160;28;1309;-73
2022/08/07 15:55:02;;;;;;;;;;;;;;;;;;5111578;28;1764;-71
2022/08/07 15:57:29;;;;;;;;;;;;;;;;;;5104346;28;1768;-71
2022/08/07 15:59:56;;;;;;;;;;;;;;;;;;5100890;28;1407;-72
2022/08/07 16:02:23;;;;;;;;;;;;;;;;;;5110681;28;1452;-72
2022/08/07 16:04:49;;;;;;;;;;;;;;;;;;5107590;28;1416;-72
2022/08/07 16:07:15;;;;;;;;;;;;;;;;;;5108503;28;1917;-71
2022/08/07 16:09:46;;;;;;;;;;;;;;;;;;5114354;27;1137;-72
2022/08/07 16:12:13;;;;;;;;;;;;;;;;;;5112889;28;1475;-72
2022/08/07 16:14:54;;;;;;;;;;;;;;;;;;5111971;28;1493;-73
2022/08/07 16:17:26;;;;;;;;;;;;;;;;;;5095255;28;1526;-74
2022/08/07 16:19:56;;;;;;;;;;;;;;;;;;5112030;28;1505;-74
2022/08/07 16:22:32;;;;;;;;;;;;;;;;;;5102763;28;1432;-72
2022/08/07 16:25:03;;;;;;;;;;;;;;;;;;5106750;28;1367;-73
2022/08/07 16:27:29;;;;;;;;;;;;;;;;;;5111868;28;1918;-71
2022/08/07 16:30:03;;;;;;;;;;;;;;;;;;5103777;28;1418;-72
2022/08/07 16:32:30;;;;;;;;;;;;;;;;;;5113418;28;1309;-73
2022/08/07 16:34:56;;;;;;;;;;;;;;;;;;5107615;28;1458;-71
2022/08/07 16:37:27;;;;;;;;;;;;;;;;;;5109707;28;1482;-70
2022/08/07 16:39:54;;;;;;;;;;;;;;;;;;5107618;28;1454;-72
2022/08/07 16:42:30;;;;;;;;;;;;;;;;;;5092208;28;1383;-72
2022/08/07 16:45:03;;;;;;;;;;;;;;;;;;5103600;28;1430;-72
2022/08/07 16:47:47;;;;;;;;;;;;;;;;;;5105456;28;1967;-72
2022/08/07 16:50:19;;;;;;;;;;;;;;;;;;5069768;28;1609;-72
2022/08/07 16:52:56;;;;;;;;;;;;;;;;;;5111101;28;1383;-73
2022/08/07 16:55:26;;;;;;;;;;;;;;;;;;5111589;28;1122;-72
2022/08/07 16:57:56;;;;;;;;;;;;;;;;;;5106182;28;1405;-72
2022/08/07 17:00:22;;;;;;;;;;;;;;;;;;5103178;28;1468;-73
2022/08/07 17:02:57;;;;;;;;;;;;;;;;;;5108384;28;1462;-72
2022/08/07 17:05:43;;;;;;;;;;;;;;;;;;5100634;28;1314;-73
2022/08/07 17:08:09;;;;;;;;;;;;;;;;;;5102132;28;1934;-71
2022/08/07 17:10:37;;;;;;;;;;;;;;;;;;5110782;28;1729;-72
2022/08/07 17:13:24;;;;;;;;;;;;;;;;;;5099296;28;1249;-71
2022/08/07 17:15:51;;;;;;;;;;;;;;;;;;5091440;28;1472;-71
2022/08/07 17:18:21;;;;;;;;;;;;;;;;;;5104010;28;1343;-72
2022/08/07 17:20:48;;;;;;;;;;;;;;;;;;5106411;28;1471;-71